La Mesa, CA

4:01 AM PDT on October 02, 2014 (GMT -0700)
San Diego International-Lindbergh | Change Station
CLOSE
Current Station
Airport
Location: San Diego,
Elevation: 9 m
Nearby Weather Stations
Active Advisory: Heat Advisory

Elev 9 m 32.73 °N, 117.18 °W | Updated 10 minutes ago

Clear
Clear
19 °C
Feels Like 19 °C
N
0
Wind Variable Wind from North

Today
High -- | Low -- °C
--% Chance of Precip.
Yesterday
High -- | Low -- °C
Precip. -- mm
6:42 AM 6:31 PM
First Quarter, 57% visible
Pressure 1012 hPa
Visibility 14.5 kilometers
Clouds Clear
Dew Point 17 °C
Humidity 84%
Rainfall 0.0 mm
Snow Depth 0 in , 0 in , 0 in
UV 0 out of 12
Pollen 5.40 out of 12
Ozone Good
PM2.5 Good
Flu Activity Not available.
METAR KSAN 021051Z 00000KT 9SM CLR 19/17 A2988 RMK AO2 SLP118 T01940167

More Conditions Fewer Conditions

Pressure 1012 hPa
Visibility 14.5 kilometers
Clouds Clear
Dew Point 17 °C
Humidity 84%
Rainfall 0.0 mm
Snow Depth 0 in , 0 in , 0 in
UV 0 out of 12
Pollen 5.40 out of 12
Ozone Good
PM2.5 Good
Flu Activity Not available.
METAR KSAN 021051Z 00000KT 9SM CLR 19/17 A2988 RMK AO2 SLP118 T01940167

More Conditions Fewer Conditions

10-Day Weather Forecast

Almanac

Astronomy

Oct. 02, 2014 Rise Set
Actual Time 6:42 AM PDT 6:31 PM PDT
Civil Twilight 6:18 AM PDT 6:55 PM PDT
Nautical Twilight 5:49 AM PDT 7:24 PM PDT
Astronomical Twilight 5:21 AM PDT 7:52 PM PDT
Moon 2:24 PM PDT 12:22 AM PDT
Length of Visible Light 12h 37m
Length of Day
11h 48m
Tomorrow will be 1m 59s shorter.
First Quarter, 57% of the Moon is Illuminated
Today
First Quarter
Oct 8
Full
Oct 15
Last Quarter
Oct 23
New
Oct 30
First Quarter

Today's Extremes

State Highs State Lows

Community

WunderPhotos

Upload Photos

1,758,215 photos uploaded!

WunderBlogs® & News

Nearby

Air Quality

  Air Quality AQ Index Pollutant
Yesterday Moderate
PM2.5
Yesterday Good
OZONE
Current Good
PM2.5
Current Good
OZONE
Thursday Moderate
OZONE
Thursday Good
PM2.5

Snow Depth

Station Depth Elevation
Adin Mountain 0 in 6200 ft
Fallen Leaf 0 in 6300 ft
Independence Lake 0 in 8450 ft
Truckee #2 0 in 6400 ft
Tahoe City Cross 0 in 6750 ft

Earthquake Activity

City Distance Mag. Time & Date
Avalon, California 130 kilometers 3.2 10:12 PM PDT
2014-10-01
Avalon, California 130 kilometers 2.6 1:28 PM PDT
2014-09-30
Minimum magnitude displayed is 2.5.

Coastal Water Temperatures

Place Temperature
La Jolla, CA 21.7 °C
San Diego, CA 22.8 °C

Nearby Weather Stations